sensor_id;sensor_type;location;lat;lon;timestamp;temperature;humidity
6666;DHT22;3369;49.906;8.598;2023-04-25T00:02:01;8.30;99.90
6666;DHT22;3369;49.906;8.598;2023-04-25T00:04:27;8.20;99.90
6666;DHT22;3369;49.906;8.598;2023-04-25T00:06:55;8.20;99.90
6666;DHT22;3369;49.906;8.598;2023-04-25T00:09:22;8.20;99.90
6666;DHT22;3369;49.906;8.598;2023-04-25T00:11:47;8.10;99.90
6666;DHT22;3369;49.906;8.598;2023-04-25T00:14:13;8.00;99.90
6666;DHT22;3369;49.906;8.598;2023-04-25T00:16:39;8.00;99.90
6666;DHT22;3369;49.906;8.598;2023-04-25T00:19:06;8.10;99.90
6666;DHT22;3369;49.906;8.598;2023-04-25T00:21:33;8.00;99.90
6666;DHT22;3369;49.906;8.598;2023-04-25T00:23:58;8.00;99.90
6666;DHT22;3369;49.906;8.598;2023-04-25T00:26:24;8.10;99.90
6666;DHT22;3369;49.906;8.598;2023-04-25T00:28:50;8.00;99.90
6666;DHT22;3369;49.906;8.598;2023-04-25T00:31:16;8.00;99.90
6666;DHT22;3369;49.906;8.598;2023-04-25T00:33:41;8.10;99.90
6666;DHT22;3369;49.906;8.598;2023-04-25T00:36:07;8.00;99.90
6666;DHT22;3369;49.906;8.598;2023-04-25T00:38:33;8.10;99.90
6666;DHT22;3369;49.906;8.598;2023-04-25T00:40:59;8.10;99.90
6666;DHT22;3369;49.906;8.598;2023-04-25T00:43:28;8.10;99.90
6666;DHT22;3369;49.906;8.598;2023-04-25T00:45:56;8.10;99.90
6666;DHT22;3369;49.906;8.598;2023-04-25T00:48:23;8.10;99.90
6666;DHT22;3369;49.906;8.598;2023-04-25T00:50:52;8.10;99.90
6666;DHT22;3369;49.906;8.598;2023-04-25T00:53:22;8.10;99.90
6666;DHT22;3369;49.906;8.598;2023-04-25T00:55:48;8.10;99.90
6666;DHT22;3369;49.906;8.598;2023-04-25T00:58:19;8.10;99.90
6666;DHT22;3369;49.906;8.598;2023-04-25T01:00:46;8.10;99.90
6666;DHT22;3369;49.906;8.598;2023-04-25T01:03:16;8.20;99.90
6666;DHT22;3369;49.906;8.598;2023-04-25T01:05:43;8.10;99.90
6666;DHT22;3369;49.906;8.598;2023-04-25T01:29:10;8.10;99.90
6666;DHT22;3369;49.906;8.598;2023-04-25T01:31:36;8.10;99.90
6666;DHT22;3369;49.906;8.598;2023-04-25T01:34:03;8.10;99.90
6666;DHT22;3369;49.906;8.598;2023-04-25T01:36:28;8.10;99.90
6666;DHT22;3369;49.906;8.598;2023-04-25T01:38:54;8.10;99.90
6666;DHT22;3369;49.906;8.598;2023-04-25T01:41:20;8.10;99.90
6666;DHT22;3369;49.906;8.598;2023-04-25T01:43:48;8.10;99.90
6666;DHT22;3369;49.906;8.598;2023-04-25T01:46:14;8.10;99.90
6666;DHT22;3369;49.906;8.598;2023-04-25T01:48:39;8.10;99.90
6666;DHT22;3369;49.906;8.598;2023-04-25T01:51:05;8.10;99.90
6666;DHT22;3369;49.906;8.598;2023-04-25T01:53:31;8.20;99.90
6666;DHT22;3369;49.906;8.598;2023-04-25T01:55:57;8.20;99.90
6666;DHT22;3369;49.906;8.598;2023-04-25T01:58:22;8.10;99.90
6666;DHT22;3369;49.906;8.598;2023-04-25T02:00:48;8.10;99.90
6666;DHT22;3369;49.906;8.598;2023-04-25T02:03:13;8.00;99.90
6666;DHT22;3369;49.906;8.598;2023-04-25T02:05:40;8.00;99.90
6666;DHT22;3369;49.906;8.598;2023-04-25T02:08:08;8.00;99.90
6666;DHT22;3369;49.906;8.598;2023-04-25T02:10:34;8.00;99.90
6666;DHT22;3369;49.906;8.598;2023-04-25T02:13:00;7.90;99.90
6666;DHT22;3369;49.906;8.598;2023-04-25T02:15:26;7.90;99.90
6666;DHT22;3369;49.906;8.598;2023-04-25T02:17:52;7.90;99.90
6666;DHT22;3369;49.906;8.598;2023-04-25T02:20:21;8.00;99.90
6666;DHT22;3369;49.906;8.598;2023-04-25T02:22:47;7.90;99.90
6666;DHT22;3369;49.906;8.598;2023-04-25T02:25:12;7.90;99.90
6666;DHT22;3369;49.906;8.598;2023-04-25T02:27:38;8.00;99.90
6666;DHT22;3369;49.906;8.598;2023-04-25T02:30:05;8.00;99.90
6666;DHT22;3369;49.906;8.598;2023-04-25T02:32:32;7.90;99.90
6666;DHT22;3369;49.906;8.598;2023-04-25T02:34:59;7.90;99.90
6666;DHT22;3369;49.906;8.598;2023-04-25T02:37:29;7.90;99.90
6666;DHT22;3369;49.906;8.598;2023-04-25T02:39:55;8.00;99.90
6666;DHT22;3369;49.906;8.598;2023-04-25T02:42:21;8.00;99.90
6666;DHT22;3369;49.906;8.598;2023-04-25T02:44:46;7.90;99.90
6666;DHT22;3369;49.906;8.598;2023-04-25T02:47:12;8.00;99.90
6666;DHT22;3369;49.906;8.598;2023-04-25T02:49:37;7.90;99.90
6666;DHT22;3369;49.906;8.598;2023-04-25T02:52:03;7.90;99.90
6666;DHT22;3369;49.906;8.598;2023-04-25T02:54:29;7.80;99.90
6666;DHT22;3369;49.906;8.598;2023-04-25T02:56:55;7.80;99.90
6666;DHT22;3369;49.906;8.598;2023-04-25T02:59:21;7.80;99.90
6666;DHT22;3369;49.906;8.598;2023-04-25T03:01:46;7.70;99.90
6666;DHT22;3369;49.906;8.598;2023-04-25T03:04:12;7.70;99.90
6666;DHT22;3369;49.906;8.598;2023-04-25T03:06:37;7.70;99.90
6666;DHT22;3369;49.906;8.598;2023-04-25T03:09:03;7.70;99.90
6666;DHT22;3369;49.906;8.598;2023-04-25T03:11:29;7.80;99.90
6666;DHT22;3369;49.906;8.598;2023-04-25T03:13:55;7.70;99.90
6666;DHT22;3369;49.906;8.598;2023-04-25T03:16:21;7.70;99.90
6666;DHT22;3369;49.906;8.598;2023-04-25T03:18:47;7.70;99.90
6666;DHT22;3369;49.906;8.598;2023-04-25T03:21:12;7.80;99.90
6666;DHT22;3369;49.906;8.598;2023-04-25T03:23:38;7.80;99.90
6666;DHT22;3369;49.906;8.598;2023-04-25T03:26:03;7.80;99.90
6666;DHT22;3369;49.906;8.598;2023-04-25T03:28:29;7.80;99.90
6666;DHT22;3369;49.906;8.598;2023-04-25T03:30:55;7.90;99.90
6666;DHT22;3369;49.906;8.598;2023-04-25T03:33:21;7.80;99.90
6666;DHT22;3369;49.906;8.598;2023-04-25T03:35:46;7.80;99.90
6666;DHT22;3369;49.906;8.598;2023-04-25T03:38:12;7.80;99.90
6666;DHT22;3369;49.906;8.598;2023-04-25T03:40:38;7.80;99.90
6666;DHT22;3369;49.906;8.598;2023-04-25T03:43:03;7.80;99.90
6666;DHT22;3369;49.906;8.598;2023-04-25T03:45:29;7.80;99.90
6666;DHT22;3369;49.906;8.598;2023-04-25T03:47:55;7.90;99.90
6666;DHT22;3369;49.906;8.598;2023-04-25T03:50:20;7.80;99.90
6666;DHT22;3369;49.906;8.598;2023-04-25T03:52:46;7.80;99.90
6666;DHT22;3369;49.906;8.598;2023-04-25T03:55:12;7.80;99.90
6666;DHT22;3369;49.906;8.598;2023-04-25T03:57:37;7.90;99.90
6666;DHT22;3369;49.906;8.598;2023-04-25T04:00:03;7.80;99.90
6666;DHT22;3369;49.906;8.598;2023-04-25T04:02:29;7.90;99.90
6666;DHT22;3369;49.906;8.598;2023-04-25T04:04:55;7.90;99.90
6666;DHT22;3369;49.906;8.598;2023-04-25T04:07:22;7.90;99.90
6666;DHT22;3369;49.906;8.598;2023-04-25T04:09:47;7.90;99.90
6666;DHT22;3369;49.906;8.598;2023-04-25T04:12:13;7.90;99.90
6666;DHT22;3369;49.906;8.598;2023-04-25T04:14:38;7.80;99.90
6666;DHT22;3369;49.906;8.598;2023-04-25T04:17:04;7.80;99.90
6666;DHT22;3369;49.906;8.598;2023-04-25T04:19:31;7.80;99.90
6666;DHT22;3369;49.906;8.598;2023-04-25T04:21:57;7.90;99.90
6666;DHT22;3369;49.906;8.598;2023-04-25T04:24:23;7.90;99.90
6666;DHT22;3369;49.906;8.598;2023-04-25T04:26:49;7.90;99.90
6666;DHT22;3369;49.906;8.598;2023-04-25T04:29:16;8.00;99.90
6666;DHT22;3369;49.906;8.598;2023-04-25T04:31:48;8.00;99.90
6666;DHT22;3369;49.906;8.598;2023-04-25T04:34:14;8.10;99.90
6666;DHT22;3369;49.906;8.598;2023-04-25T04:36:41;8.10;99.90
6666;DHT22;3369;49.906;8.598;2023-04-25T04:39:07;8.10;99.90
6666;DHT22;3369;49.906;8.598;2023-04-25T04:41:34;8.10;99.90
6666;DHT22;3369;49.906;8.598;2023-04-25T04:44:00;8.00;99.90
6666;DHT22;3369;49.906;8.598;2023-04-25T04:46:27;8.00;99.90
6666;DHT22;3369;49.906;8.598;2023-04-25T04:48:53;8.00;99.90
6666;DHT22;3369;49.906;8.598;2023-04-25T04:51:19;8.00;99.90
6666;DHT22;3369;49.906;8.598;2023-04-25T04:53:46;8.00;99.90
6666;DHT22;3369;49.906;8.598;2023-04-25T04:56:11;8.00;99.90
6666;DHT22;3369;49.906;8.598;2023-04-25T04:58:37;8.00;99.90
6666;DHT22;3369;49.906;8.598;2023-04-25T05:01:03;8.00;99.90
6666;DHT22;3369;49.906;8.598;2023-04-25T05:03:28;8.00;99.90
6666;DHT22;3369;49.906;8.598;2023-04-25T05:05:54;8.00;99.90
6666;DHT22;3369;49.906;8.598;2023-04-25T05:08:20;7.90;99.90
6666;DHT22;3369;49.906;8.598;2023-04-25T05:10:45;7.90;99.90
6666;DHT22;3369;49.906;8.598;2023-04-25T05:13:11;7.90;99.90
6666;DHT22;3369;49.906;8.598;2023-04-25T05:15:37;7.80;99.90
6666;DHT22;3369;49.906;8.598;2023-04-25T05:18:03;7.80;99.90
6666;DHT22;3369;49.906;8.598;2023-04-25T05:20:28;7.80;99.90
6666;DHT22;3369;49.906;8.598;2023-04-25T05:22:54;7.70;99.90
6666;DHT22;3369;49.906;8.598;2023-04-25T05:25:20;7.60;99.90
6666;DHT22;3369;49.906;8.598;2023-04-25T05:27:46;7.60;99.90
6666;DHT22;3369;49.906;8.598;2023-04-25T05:30:11;7.50;99.90
6666;DHT22;3369;49.906;8.598;2023-04-25T05:32:37;7.50;99.90
6666;DHT22;3369;49.906;8.598;2023-04-25T05:35:03;7.50;99.90
6666;DHT22;3369;49.906;8.598;2023-04-25T05:37:28;7.50;99.90
6666;DHT22;3369;49.906;8.598;2023-04-25T05:39:56;7.50;99.90
6666;DHT22;3369;49.906;8.598;2023-04-25T05:42:22;7.60;99.90
6666;DHT22;3369;49.906;8.598;2023-04-25T05:44:47;7.60;99.90
6666;DHT22;3369;49.906;8.598;2023-04-25T05:47:13;7.60;99.90
6666;DHT22;3369;49.906;8.598;2023-04-25T05:49:39;7.60;99.90
6666;DHT22;3369;49.906;8.598;2023-04-25T05:52:04;7.60;99.90
6666;DHT22;3369;49.906;8.598;2023-04-25T05:54:30;7.70;99.90
6666;DHT22;3369;49.906;8.598;2023-04-25T05:56:58;7.70;99.90
6666;DHT22;3369;49.906;8.598;2023-04-25T05:59:24;7.80;99.90
6666;DHT22;3369;49.906;8.598;2023-04-25T06:01:50;7.80;99.90
6666;DHT22;3369;49.906;8.598;2023-04-25T06:04:16;7.90;99.90
6666;DHT22;3369;49.906;8.598;2023-04-25T06:06:42;7.90;99.90
6666;DHT22;3369;49.906;8.598;2023-04-25T06:09:08;7.90;99.90
6666;DHT22;3369;49.906;8.598;2023-04-25T06:11:33;7.90;99.90
6666;DHT22;3369;49.906;8.598;2023-04-25T06:13:59;7.90;99.90
6666;DHT22;3369;49.906;8.598;2023-04-25T06:16:24;7.90;99.90
6666;DHT22;3369;49.906;8.598;2023-04-25T06:18:51;7.90;99.90
6666;DHT22;3369;49.906;8.598;2023-04-25T06:21:16;7.90;99.90
6666;DHT22;3369;49.906;8.598;2023-04-25T06:23:42;8.00;99.90
6666;DHT22;3369;49.906;8.598;2023-04-25T06:26:08;8.10;99.90
6666;DHT22;3369;49.906;8.598;2023-04-25T06:28:33;8.20;99.90
6666;DHT22;3369;49.906;8.598;2023-04-25T06:30:59;8.30;99.90
6666;DHT22;3369;49.906;8.598;2023-04-25T06:33:25;8.30;99.90
6666;DHT22;3369;49.906;8.598;2023-04-25T06:35:50;8.40;99.90
6666;DHT22;3369;49.906;8.598;2023-04-25T06:38:16;8.40;99.90
6666;DHT22;3369;49.906;8.598;2023-04-25T06:40:41;8.50;99.90
6666;DHT22;3369;49.906;8.598;2023-04-25T06:43:07;8.60;99.90
6666;DHT22;3369;49.906;8.598;2023-04-25T06:45:33;8.60;99.90
6666;DHT22;3369;49.906;8.598;2023-04-25T06:47:58;8.70;99.90
6666;DHT22;3369;49.906;8.598;2023-04-25T07:12:37;9.00;99.90
6666;DHT22;3369;49.906;8.598;2023-04-25T07:15:03;9.10;99.90
6666;DHT22;3369;49.906;8.598;2023-04-25T07:17:32;9.30;99.90
6666;DHT22;3369;49.906;8.598;2023-04-25T07:19:58;9.30;99.90
6666;DHT22;3369;49.906;8.598;2023-04-25T07:22:23;9.30;99.90
6666;DHT22;3369;49.906;8.598;2023-04-25T07:24:49;9.30;99.90
6666;DHT22;3369;49.906;8.598;2023-04-25T07:27:15;9.30;99.90
6666;DHT22;3369;49.906;8.598;2023-04-25T07:29:41;9.20;99.90
6666;DHT22;3369;49.906;8.598;2023-04-25T07:32:07;9.30;99.90
6666;DHT22;3369;49.906;8.598;2023-04-25T07:34:33;9.30;99.90
6666;DHT22;3369;49.906;8.598;2023-04-25T07:37:02;9.40;99.90
6666;DHT22;3369;49.906;8.598;2023-04-25T07:39:28;9.40;99.90
6666;DHT22;3369;49.906;8.598;2023-04-25T07:41:53;9.40;99.90
6666;DHT22;3369;49.906;8.598;2023-04-25T07:44:20;9.40;99.90
6666;DHT22;3369;49.906;8.598;2023-04-25T07:46:45;9.40;99.90
6666;DHT22;3369;49.906;8.598;2023-04-25T07:49:11;9.40;99.90
6666;DHT22;3369;49.906;8.598;2023-04-25T07:51:37;9.30;99.90
6666;DHT22;3369;49.906;8.598;2023-04-25T07:54:02;9.40;99.90
6666;DHT22;3369;49.906;8.598;2023-04-25T07:56:28;9.50;99.90
6666;DHT22;3369;49.906;8.598;2023-04-25T07:58:54;9.70;99.90
6666;DHT22;3369;49.906;8.598;2023-04-25T08:01:19;9.90;99.90
6666;DHT22;3369;49.906;8.598;2023-04-25T08:03:46;10.00;99.90
6666;DHT22;3369;49.906;8.598;2023-04-25T08:06:12;10.00;99.90
6666;DHT22;3369;49.906;8.598;2023-04-25T08:08:38;10.10;99.90
6666;DHT22;3369;49.906;8.598;2023-04-25T08:11:03;10.20;99.90
6666;DHT22;3369;49.906;8.598;2023-04-25T08:13:29;10.30;99.90
6666;DHT22;3369;49.906;8.598;2023-04-25T08:15:54;10.50;99.90
6666;DHT22;3369;49.906;8.598;2023-04-25T08:18:20;10.60;99.90
6666;DHT22;3369;49.906;8.598;2023-04-25T08:20:46;10.70;99.90
6666;DHT22;3369;49.906;8.598;2023-04-25T08:23:12;10.80;99.90
6666;DHT22;3369;49.906;8.598;2023-04-25T08:25:37;10.90;99.90
6666;DHT22;3369;49.906;8.598;2023-04-25T08:28:03;11.10;99.90
6666;DHT22;3369;49.906;8.598;2023-04-25T08:30:29;11.30;99.90
6666;DHT22;3369;49.906;8.598;2023-04-25T08:32:55;11.40;99.90
6666;DHT22;3369;49.906;8.598;2023-04-25T08:35:21;11.60;99.90
6666;DHT22;3369;49.906;8.598;2023-04-25T08:37:46;11.80;99.90
6666;DHT22;3369;49.906;8.598;2023-04-25T08:40:14;12.00;99.90
6666;DHT22;3369;49.906;8.598;2023-04-25T08:42:43;12.10;99.90
6666;DHT22;3369;49.906;8.598;2023-04-25T08:45:10;12.20;99.90
6666;DHT22;3369;49.906;8.598;2023-04-25T08:47:38;12.20;99.90
6666;DHT22;3369;49.906;8.598;2023-04-25T08:50:04;12.30;99.90
6666;DHT22;3369;49.906;8.598;2023-04-25T08:52:41;12.30;99.90
6666;DHT22;3369;49.906;8.598;2023-04-25T08:55:09;12.40;99.90
6666;DHT22;3369;49.906;8.598;2023-04-25T08:57:35;12.40;99.90
6666;DHT22;3369;49.906;8.598;2023-04-25T09:00:01;12.50;99.90
6666;DHT22;3369;49.906;8.598;2023-04-25T09:02:27;12.50;99.90
6666;DHT22;3369;49.906;8.598;2023-04-25T09:04:54;12.50;99.90
6666;DHT22;3369;49.906;8.598;2023-04-25T09:07:20;12.60;99.90
6666;DHT22;3369;49.906;8.598;2023-04-25T09:09:47;12.80;99.90
6666;DHT22;3369;49.906;8.598;2023-04-25T09:12:13;12.90;99.90
6666;DHT22;3369;49.906;8.598;2023-04-25T09:14:38;13.00;99.90
6666;DHT22;3369;49.906;8.598;2023-04-25T09:17:04;13.10;99.90
6666;DHT22;3369;49.906;8.598;2023-04-25T09:19:34;13.30;99.90
6666;DHT22;3369;49.906;8.598;2023-04-25T09:22:02;13.40;99.90
6666;DHT22;3369;49.906;8.598;2023-04-25T09:24:39;13.60;99.90
6666;DHT22;3369;49.906;8.598;2023-04-25T09:27:10;13.60;99.90
6666;DHT22;3369;49.906;8.598;2023-04-25T09:29:38;13.50;99.90
6666;DHT22;3369;49.906;8.598;2023-04-25T09:34:47;13.10;99.90
6666;DHT22;3369;49.906;8.598;2023-04-25T09:37:27;13.00;99.90
6666;DHT22;3369;49.906;8.598;2023-04-25T09:39:57;13.00;99.90
6666;DHT22;3369;49.906;8.598;2023-04-25T09:42:26;12.90;99.90
6666;DHT22;3369;49.906;8.598;2023-04-25T09:44:53;12.80;99.90
6666;DHT22;3369;49.906;8.598;2023-04-25T09:47:20;12.80;99.90
6666;DHT22;3369;49.906;8.598;2023-04-25T09:49:48;12.80;99.90
6666;DHT22;3369;49.906;8.598;2023-04-25T09:52:16;12.70;99.70
6666;DHT22;3369;49.906;8.598;2023-04-25T09:54:47;12.60;99.50
6666;DHT22;3369;49.906;8.598;2023-04-25T09:57:16;12.50;98.70
6666;DHT22;3369;49.906;8.598;2023-04-25T09:59:47;12.40;98.80
6666;DHT22;3369;49.906;8.598;2023-04-25T10:02:16;12.30;99.10
6666;DHT22;3369;49.906;8.598;2023-04-25T10:04:45;12.20;99.20
6666;DHT22;3369;49.906;8.598;2023-04-25T10:07:13;12.20;99.30
6666;DHT22;3369;49.906;8.598;2023-04-25T10:09:40;12.10;99.20
6666;DHT22;3369;49.906;8.598;2023-04-25T10:12:07;12.00;99.00
6666;DHT22;3369;49.906;8.598;2023-04-25T10:14:34;11.90;98.90
6666;DHT22;3369;49.906;8.598;2023-04-25T10:17:00;11.80;98.90
6666;DHT22;3369;49.906;8.598;2023-04-25T10:19:27;11.70;98.60
6666;DHT22;3369;49.906;8.598;2023-04-25T10:24:30;11.60;98.70
6666;DHT22;3369;49.906;8.598;2023-04-25T10:26:57;11.70;99.00
6666;DHT22;3369;49.906;8.598;2023-04-25T10:29:24;11.70;98.90
6666;DHT22;3369;49.906;8.598;2023-04-25T10:31:51;11.70;98.70
6666;DHT22;3369;49.906;8.598;2023-04-25T10:34:17;11.80;98.90
6666;DHT22;3369;49.906;8.598;2023-04-25T10:36:43;11.80;99.00
6666;DHT22;3369;49.906;8.598;2023-04-25T10:39:24;11.90;99.10
6666;DHT22;3369;49.906;8.598;2023-04-25T10:41:58;12.20;99.40
6666;DHT22;3369;49.906;8.598;2023-04-25T10:44:29;12.40;99.50
6666;DHT22;3369;49.906;8.598;2023-04-25T10:46:56;12.60;98.30
6666;DHT22;3369;49.906;8.598;2023-04-25T10:49:34;12.60;98.10
6666;DHT22;3369;49.906;8.598;2023-04-25T10:52:24;12.50;98.00
6666;DHT22;3369;49.906;8.598;2023-04-25T10:54:56;12.50;98.20
6666;DHT22;3369;49.906;8.598;2023-04-25T11:00:04;12.20;97.90
6666;DHT22;3369;49.906;8.598;2023-04-25T11:02:31;12.10;98.10
6666;DHT22;3369;49.906;8.598;2023-04-25T11:04:56;12.10;98.40
6666;DHT22;3369;49.906;8.598;2023-04-25T11:07:43;12.20;98.80
6666;DHT22;3369;49.906;8.598;2023-04-25T11:10:10;12.30;98.50
6666;DHT22;3369;49.906;8.598;2023-04-25T11:12:36;12.40;98.30
6666;DHT22;3369;49.906;8.598;2023-04-25T11:15:06;12.50;97.90
6666;DHT22;3369;49.906;8.598;2023-04-25T11:17:33;12.50;98.00
6666;DHT22;3369;49.906;8.598;2023-04-25T11:20:00;12.60;97.90
6666;DHT22;3369;49.906;8.598;2023-04-25T11:22:27;12.60;97.60
6666;DHT22;3369;49.906;8.598;2023-04-25T11:24:53;12.60;97.10
6666;DHT22;3369;49.906;8.598;2023-04-25T11:27:19;12.50;96.40
6666;DHT22;3369;49.906;8.598;2023-04-25T11:29:44;12.50;96.80
6666;DHT22;3369;49.906;8.598;2023-04-25T11:32:14;12.30;96.40
6666;DHT22;3369;49.906;8.598;2023-04-25T11:34:43;12.20;96.30
6666;DHT22;3369;49.906;8.598;2023-04-25T11:37:08;12.00;96.50
6666;DHT22;3369;49.906;8.598;2023-04-25T11:39:34;11.90;96.50
6666;DHT22;3369;49.906;8.598;2023-04-25T11:42:00;11.80;96.50
6666;DHT22;3369;49.906;8.598;2023-04-25T11:44:26;11.80;96.70
6666;DHT22;3369;49.906;8.598;2023-04-25T11:46:53;11.90;97.20
6666;DHT22;3369;49.906;8.598;2023-04-25T11:49:19;12.00;97.40
6666;DHT22;3369;49.906;8.598;2023-04-25T11:51:46;12.10;97.60
6666;DHT22;3369;49.906;8.598;2023-04-25T11:54:12;12.20;97.70
6666;DHT22;3369;49.906;8.598;2023-04-25T11:56:42;12.30;97.80
6666;DHT22;3369;49.906;8.598;2023-04-25T11:59:07;12.40;97.80
6666;DHT22;3369;49.906;8.598;2023-04-25T12:01:35;12.50;97.90
6666;DHT22;3369;49.906;8.598;2023-04-25T12:04:16;12.60;97.90
6666;DHT22;3369;49.906;8.598;2023-04-25T12:06:42;12.50;97.30
6666;DHT22;3369;49.906;8.598;2023-04-25T12:09:10;12.50;97.00
6666;DHT22;3369;49.906;8.598;2023-04-25T12:11:44;12.40;96.20
6666;DHT22;3369;49.906;8.598;2023-04-25T12:14:10;12.20;96.10
6666;DHT22;3369;49.906;8.598;2023-04-25T12:16:46;12.20;96.40
6666;DHT22;3369;49.906;8.598;2023-04-25T12:19:16;12.10;96.60
6666;DHT22;3369;49.906;8.598;2023-04-25T12:21:43;12.00;96.80
6666;DHT22;3369;49.906;8.598;2023-04-25T12:24:16;12.00;96.70
6666;DHT22;3369;49.906;8.598;2023-04-25T12:26:52;12.00;96.70
6666;DHT22;3369;49.906;8.598;2023-04-25T12:29:23;12.10;96.90
6666;DHT22;3369;49.906;8.598;2023-04-25T12:31:50;12.10;96.80
6666;DHT22;3369;49.906;8.598;2023-04-25T12:34:17;12.10;96.50
6666;DHT22;3369;49.906;8.598;2023-04-25T12:36:43;12.00;96.50
6666;DHT22;3369;49.906;8.598;2023-04-25T12:39:15;12.00;96.60
6666;DHT22;3369;49.906;8.598;2023-04-25T12:41:40;12.00;96.40
6666;DHT22;3369;49.906;8.598;2023-04-25T12:44:06;12.00;95.80
6666;DHT22;3369;49.906;8.598;2023-04-25T12:46:32;12.00;96.00
6666;DHT22;3369;49.906;8.598;2023-04-25T12:48:57;12.30;97.20
6666;DHT22;3369;49.906;8.598;2023-04-25T12:51:23;12.60;97.10
6666;DHT22;3369;49.906;8.598;2023-04-25T12:53:50;13.00;97.20
6666;DHT22;3369;49.906;8.598;2023-04-25T12:56:16;13.10;95.70
6666;DHT22;3369;49.906;8.598;2023-04-25T12:58:42;13.30;95.90
6666;DHT22;3369;49.906;8.598;2023-04-25T13:01:09;13.40;95.10
6666;DHT22;3369;49.906;8.598;2023-04-25T13:03:35;13.40;95.00
6666;DHT22;3369;49.906;8.598;2023-04-25T13:06:01;13.40;94.50
6666;DHT22;3369;49.906;8.598;2023-04-25T13:29:14;13.50;93.60
6666;DHT22;3369;49.906;8.598;2023-04-25T13:31:40;13.40;94.10
6666;DHT22;3369;49.906;8.598;2023-04-25T13:34:06;13.30;94.40
6666;DHT22;3369;49.906;8.598;2023-04-25T13:36:32;13.20;94.70
6666;DHT22;3369;49.906;8.598;2023-04-25T13:38:58;13.10;94.80
6666;DHT22;3369;49.906;8.598;2023-04-25T13:41:24;13.10;94.90
6666;DHT22;3369;49.906;8.598;2023-04-25T13:43:49;13.10;94.90
6666;DHT22;3369;49.906;8.598;2023-04-25T13:46:15;13.10;94.60
6666;DHT22;3369;49.906;8.598;2023-04-25T13:48:41;13.00;94.40
6666;DHT22;3369;49.906;8.598;2023-04-25T13:51:12;13.00;94.30
6666;DHT22;3369;49.906;8.598;2023-04-25T13:53:37;12.90;94.40
6666;DHT22;3369;49.906;8.598;2023-04-25T13:56:04;12.80;93.00
6666;DHT22;3369;49.906;8.598;2023-04-25T13:58:30;12.70;92.80
6666;DHT22;3369;49.906;8.598;2023-04-25T14:00:57;12.60;93.10
6666;DHT22;3369;49.906;8.598;2023-04-25T14:03:23;12.50;93.10
6666;DHT22;3369;49.906;8.598;2023-04-25T14:05:49;12.50;93.20
6666;DHT22;3369;49.906;8.598;2023-04-25T14:08:15;12.50;93.20
6666;DHT22;3369;49.906;8.598;2023-04-25T14:10:40;12.50;93.10
6666;DHT22;3369;49.906;8.598;2023-04-25T14:13:06;12.50;93.00
6666;DHT22;3369;49.906;8.598;2023-04-25T14:15:32;12.50;92.30
6666;DHT22;3369;49.906;8.598;2023-04-25T14:17:58;12.40;92.60
6666;DHT22;3369;49.906;8.598;2023-04-25T14:20:24;12.50;92.70
6666;DHT22;3369;49.906;8.598;2023-04-25T14:22:50;12.50;92.90
6666;DHT22;3369;49.906;8.598;2023-04-25T14:25:15;12.50;93.10
6666;DHT22;3369;49.906;8.598;2023-04-25T14:27:41;12.50;92.50
6666;DHT22;3369;49.906;8.598;2023-04-25T14:30:07;12.50;92.80
6666;DHT22;3369;49.906;8.598;2023-04-25T14:32:34;12.50;92.60
6666;DHT22;3369;49.906;8.598;2023-04-25T14:35:00;12.40;92.50
6666;DHT22;3369;49.906;8.598;2023-04-25T14:37:26;12.40;92.30
6666;DHT22;3369;49.906;8.598;2023-04-25T14:39:51;12.40;92.20
6666;DHT22;3369;49.906;8.598;2023-04-25T14:42:17;12.30;91.90
6666;DHT22;3369;49.906;8.598;2023-04-25T14:44:42;12.30;92.20
6666;DHT22;3369;49.906;8.598;2023-04-25T14:47:08;12.30;92.40
6666;DHT22;3369;49.906;8.598;2023-04-25T14:49:34;12.30;92.40
6666;DHT22;3369;49.906;8.598;2023-04-25T14:51:59;12.30;92.00
6666;DHT22;3369;49.906;8.598;2023-04-25T14:54:25;12.30;92.10
6666;DHT22;3369;49.906;8.598;2023-04-25T14:56:51;12.30;92.40
6666;DHT22;3369;49.906;8.598;2023-04-25T14:59:16;12.30;92.50
6666;DHT22;3369;49.906;8.598;2023-04-25T15:01:42;12.30;92.50
6666;DHT22;3369;49.906;8.598;2023-04-25T15:04:08;12.30;91.70
6666;DHT22;3369;49.906;8.598;2023-04-25T15:06:33;12.20;91.50
6666;DHT22;3369;49.906;8.598;2023-04-25T15:08:59;12.10;91.40
6666;DHT22;3369;49.906;8.598;2023-04-25T15:11:25;12.10;91.30
6666;DHT22;3369;49.906;8.598;2023-04-25T15:13:50;12.10;91.30
6666;DHT22;3369;49.906;8.598;2023-04-25T15:16:17;12.20;91.70
6666;DHT22;3369;49.906;8.598;2023-04-25T15:18:43;12.30;91.80
6666;DHT22;3369;49.906;8.598;2023-04-25T15:21:08;12.30;91.30
6666;DHT22;3369;49.906;8.598;2023-04-25T15:23:34;12.30;90.90
6666;DHT22;3369;49.906;8.598;2023-04-25T15:26:00;12.30;91.00
6666;DHT22;3369;49.906;8.598;2023-04-25T15:28:26;12.20;90.80
6666;DHT22;3369;49.906;8.598;2023-04-25T15:30:51;12.20;90.30
6666;DHT22;3369;49.906;8.598;2023-04-25T15:33:17;12.10;90.00
6666;DHT22;3369;49.906;8.598;2023-04-25T15:35:43;12.00;90.20
6666;DHT22;3369;49.906;8.598;2023-04-25T15:38:08;12.00;90.50
6666;DHT22;3369;49.906;8.598;2023-04-25T15:40:35;11.90;90.60
6666;DHT22;3369;49.906;8.598;2023-04-25T15:43:01;11.90;90.80
6666;DHT22;3369;49.906;8.598;2023-04-25T15:45:27;11.80;90.80
6666;DHT22;3369;49.906;8.598;2023-04-25T15:47:55;11.80;90.90
6666;DHT22;3369;49.906;8.598;2023-04-25T15:50:21;11.70;91.00
6666;DHT22;3369;49.906;8.598;2023-04-25T15:52:48;11.70;91.30
6666;DHT22;3369;49.906;8.598;2023-04-25T15:55:14;11.70;91.50
6666;DHT22;3369;49.906;8.598;2023-04-25T15:57:43;11.70;91.70
6666;DHT22;3369;49.906;8.598;2023-04-25T16:00:09;11.70;91.80
6666;DHT22;3369;49.906;8.598;2023-04-25T16:02:37;11.70;91.80
6666;DHT22;3369;49.906;8.598;2023-04-25T16:05:03;11.70;91.80
6666;DHT22;3369;49.906;8.598;2023-04-25T16:07:29;11.70;91.60
6666;DHT22;3369;49.906;8.598;2023-04-25T16:09:55;11.70;91.70
6666;DHT22;3369;49.906;8.598;2023-04-25T16:12:20;11.70;91.70
6666;DHT22;3369;49.906;8.598;2023-04-25T16:14:46;11.70;91.40
6666;DHT22;3369;49.906;8.598;2023-04-25T16:17:12;11.70;91.50
6666;DHT22;3369;49.906;8.598;2023-04-25T16:19:38;11.80;91.60
6666;DHT22;3369;49.906;8.598;2023-04-25T16:22:04;11.90;91.70
6666;DHT22;3369;49.906;8.598;2023-04-25T16:24:30;12.10;91.70
6666;DHT22;3369;49.906;8.598;2023-04-25T16:26:55;12.20;91.40
6666;DHT22;3369;49.906;8.598;2023-04-25T16:29:21;12.30;90.90
6666;DHT22;3369;49.906;8.598;2023-04-25T16:31:47;12.30;90.40
6666;DHT22;3369;49.906;8.598;2023-04-25T16:34:13;12.30;88.50
6666;DHT22;3369;49.906;8.598;2023-04-25T16:36:39;12.30;88.40
6666;DHT22;3369;49.906;8.598;2023-04-25T16:39:06;12.30;89.00
6666;DHT22;3369;49.906;8.598;2023-04-25T16:41:33;12.20;88.70
6666;DHT22;3369;49.906;8.598;2023-04-25T16:43:59;12.10;89.10
6666;DHT22;3369;49.906;8.598;2023-04-25T16:46:24;12.00;88.30
6666;DHT22;3369;49.906;8.598;2023-04-25T16:48:50;12.00;87.30
6666;DHT22;3369;49.906;8.598;2023-04-25T16:51:16;12.00;88.00
6666;DHT22;3369;49.906;8.598;2023-04-25T16:53:42;11.90;86.80
6666;DHT22;3369;49.906;8.598;2023-04-25T16:56:08;11.90;86.70
6666;DHT22;3369;49.906;8.598;2023-04-25T16:58:36;11.90;87.00
6666;DHT22;3369;49.906;8.598;2023-04-25T17:01:02;11.80;86.70
6666;DHT22;3369;49.906;8.598;2023-04-25T17:03:28;11.80;87.00
6666;DHT22;3369;49.906;8.598;2023-04-25T17:05:54;11.70;87.40
6666;DHT22;3369;49.906;8.598;2023-04-25T17:08:26;11.60;87.80
6666;DHT22;3369;49.906;8.598;2023-04-25T17:10:52;11.60;88.40
6666;DHT22;3369;49.906;8.598;2023-04-25T17:13:18;11.50;88.80
6666;DHT22;3369;49.906;8.598;2023-04-25T17:15:43;11.40;89.30
6666;DHT22;3369;49.906;8.598;2023-04-25T17:18:09;11.30;89.40